createdAt,value
2022-12-08T00:01:12.656Z,94.78613
2022-12-08T00:06:18.063Z,94.75293
2022-12-08T00:11:05.608Z,94.94727
2022-12-08T00:16:07.772Z,94.72266
2022-12-08T00:21:06.343Z,94.52734
2022-12-08T00:26:09.314Z,94.57129
2022-12-08T00:31:11.014Z,94.60742
2022-12-08T00:36:08.420Z,94.73438
2022-12-08T00:41:05.752Z,94.77441
2022-12-08T00:46:05.579Z,94.65039
2022-12-08T00:51:05.887Z,94.66992
2022-12-08T00:56:05.638Z,94.71875
2022-12-08T01:01:05.651Z,94.48926
2022-12-08T01:06:06.291Z,94.65234
2022-12-08T01:11:10.987Z,94.55762
2022-12-08T01:16:05.821Z,94.4375
2022-12-08T01:21:10.017Z,94.6582
2022-12-08T01:26:09.841Z,94.52344
2022-12-08T01:31:05.781Z,94.45996
2022-12-08T01:36:09.354Z,94.45117
2022-12-08T01:41:05.582Z,94.52539
2022-12-08T01:46:05.624Z,94.73633
2022-12-08T01:51:05.674Z,94.9502
2022-12-08T01:56:08.493Z,95.1543
2022-12-08T02:01:05.917Z,95.38965
2022-12-08T02:06:05.940Z,95.2207
2022-12-08T02:11:05.765Z,95.00879
2022-12-08T02:16:09.098Z,95.02148
2022-12-08T02:21:07.719Z,94.94922
2022-12-08T02:26:16.808Z,94.91699
2022-12-08T02:31:09.858Z,95.02148
2022-12-08T02:36:08.930Z,95.13574
2022-12-08T02:41:09.904Z,95.0293
2022-12-08T02:46:09.271Z,94.82422
2022-12-08T02:51:05.595Z,94.82813
2022-12-08T02:56:07.883Z,94.71973
2022-12-08T03:01:12.636Z,94.68945
2022-12-08T03:06:10.251Z,94.7666
2022-12-08T03:11:07.427Z,94.72754
2022-12-08T03:16:08.426Z,94.75
2022-12-08T03:21:08.294Z,94.68848
2022-12-08T03:26:08.266Z,94.65625
2022-12-08T03:31:08.938Z,94.95898
2022-12-08T03:36:08.088Z,94.78125
2022-12-08T03:41:16.888Z,94.75293
2022-12-08T03:46:05.742Z,95.02832
2022-12-08T03:51:05.687Z,95.07129
2022-12-08T03:56:06.856Z,94.96289
2022-12-08T04:01:05.579Z,94.99707
2022-12-08T04:06:05.631Z,95.0498
2022-12-08T04:11:06.201Z,95.30957
2022-12-08T04:16:06.081Z,95.21191
2022-12-08T04:21:05.924Z,95.03906
2022-12-08T04:26:05.503Z,94.95215
2022-12-08T04:31:05.789Z,94.9375
2022-12-08T04:36:05.922Z,94.82227
2022-12-08T04:41:05.974Z,94.84863
2022-12-08T04:46:05.582Z,94.8125
2022-12-08T04:51:05.770Z,94.81055
2022-12-08T04:56:05.605Z,94.86426
2022-12-08T05:01:05.747Z,95.11133
2022-12-08T05:06:07.000Z,95.0918
2022-12-08T05:11:10.076Z,94.97168
2022-12-08T05:16:11.039Z,94.96484
2022-12-08T05:21:05.563Z,95.06738
2022-12-08T05:26:06.348Z,95.1084
2022-12-08T05:31:07.621Z,95.04395
2022-12-08T05:36:05.973Z,95.0918
2022-12-08T05:41:05.982Z,95.16992
2022-12-08T05:46:06.164Z,95.08691
2022-12-08T05:51:05.566Z,95.12598
2022-12-08T05:56:05.767Z,95.20605
2022-12-08T06:01:05.490Z,95.15918
2022-12-08T06:06:05.719Z,95.32422
2022-12-08T06:11:05.723Z,95.33105
2022-12-08T06:16:10.630Z,95.54688
2022-12-08T06:21:10.640Z,95.2207
2022-12-08T06:26:08.984Z,95.24902
2022-12-08T06:31:10.797Z,95.22559
2022-12-08T06:36:05.984Z,95.33301
2022-12-08T06:41:05.579Z,95.17383
2022-12-08T06:46:05.746Z,95.10645
2022-12-08T06:51:09.008Z,95.1709
2022-12-08T06:56:07.421Z,95.18262
2022-12-08T07:01:07.776Z,95.07422
2022-12-08T07:06:06.353Z,95.19531
2022-12-08T07:11:12.354Z,95.22559
2022-12-08T07:16:08.889Z,95.24902
2022-12-08T07:21:07.209Z,95.2041
2022-12-08T07:26:08.399Z,95.18262
2022-12-08T07:31:05.722Z,95.21289
2022-12-08T07:36:06.767Z,95.2168
2022-12-08T07:41:05.742Z,95.25
2022-12-08T07:46:05.732Z,95.29102
2022-12-08T07:51:08.754Z,95.23633
2022-12-08T07:56:09.714Z,95.18262
2022-12-08T08:01:08.627Z,95.32031
2022-12-08T08:06:09.897Z,95.35547
2022-12-08T08:11:13.463Z,95.52832
2022-12-08T08:16:10.729Z,95.33496
2022-12-08T08:21:22.081Z,95.43066
2022-12-08T08:26:07.302Z,95.36621
2022-12-08T08:31:05.847Z,95.59277
2022-12-08T08:36:05.624Z,95.2959
2022-12-08T08:41:10.925Z,95.48242
2022-12-08T08:46:07.274Z,95.43848
2022-12-08T08:51:10.347Z,95.34473
2022-12-08T08:56:05.504Z,95.23828
2022-12-08T09:01:05.609Z,95.30762
2022-12-08T09:06:05.633Z,95.2793
2022-12-08T09:11:05.583Z,95.31738
2022-12-08T09:16:05.785Z,95.3125
2022-12-08T09:21:07.429Z,95.40527
2022-12-08T09:26:06.469Z,95.44434
2022-12-08T09:31:05.713Z,95.4043
2022-12-08T09:36:09.674Z,95.4541
2022-12-08T09:41:06.912Z,95.44043
2022-12-08T09:46:08.461Z,95.35156
2022-12-08T09:51:07.136Z,95.31348
2022-12-08T09:56:07.370Z,95.33691
2022-12-08T10:01:06.265Z,95.4082
2022-12-08T10:06:11.013Z,95.66699
2022-12-08T10:11:12.472Z,95.80469
2022-12-08T10:16:17.050Z,95.46191
2022-12-08T10:21:15.395Z,95.71582
2022-12-08T10:26:07.771Z,95.39648
2022-12-08T10:31:05.602Z,95.78711
2022-12-08T10:36:05.798Z,95.81641
2022-12-08T10:41:08.382Z,95.13184
2022-12-08T10:46:15.576Z,94.94336
2022-12-08T10:51:05.487Z,94.81348
2022-12-08T10:56:18.971Z,95.12793
2022-12-08T11:01:06.786Z,95.00879
2022-12-08T11:06:14.200Z,94.99316
2022-12-08T11:11:09.950Z,94.56348
2022-12-08T11:16:06.011Z,94.95215
2022-12-08T11:21:11.643Z,94.85547
2022-12-08T11:26:08.705Z,94.89355
2022-12-08T11:31:08.563Z,94.99219
2022-12-08T11:36:08.802Z,95.30566
2022-12-08T11:41:15.593Z,95.37988
2022-12-08T11:46:06.857Z,95.38086
2022-12-08T11:51:07.789Z,95.49023
2022-12-08T11:56:09.898Z,95.39844
2022-12-08T12:01:05.520Z,95.28418
2022-12-08T12:06:37.786Z,95.09082
2022-12-08T12:11:12.708Z,95.02344
2022-12-08T12:16:17.201Z,94.97559
2022-12-08T12:21:10.142Z,94.39063
2022-12-08T12:26:06.499Z,94.60645
2022-12-08T12:31:07.564Z,94.99121
2022-12-08T12:36:06.666Z,95.21777
2022-12-08T12:41:06.642Z,95.20215
2022-12-08T12:46:16.775Z,95.19922
2022-12-08T12:51:16.307Z,95.30957
2022-12-08T12:56:09.919Z,95.26855
2022-12-08T13:01:16.739Z,95.2666
2022-12-08T13:06:07.806Z,95.21289
2022-12-08T13:11:08.840Z,95.20703
2022-12-08T13:16:18.436Z,95.33984
2022-12-08T13:21:08.371Z,95.31055
2022-12-08T13:26:19.538Z,95.39063
2022-12-08T13:31:06.428Z,95.38184
2022-12-08T13:36:12.942Z,95.41406
2022-12-08T13:41:07.542Z,95.31543
2022-12-08T14:01:09.775Z,95.45703
2022-12-08T14:06:12.558Z,95.35059
2022-12-08T14:11:09.476Z,95.45215
2022-12-08T14:16:06.396Z,95.48242
2022-12-08T14:21:20.786Z,95.48926
2022-12-08T14:26:05.758Z,95.6377
2022-12-08T14:31:08.401Z,95.68945
2022-12-08T14:36:06.230Z,95.625
2022-12-08T14:41:10.371Z,95.54883
2022-12-08T14:46:08.404Z,95.66016
2022-12-08T14:51:11.349Z,95.5791
2022-12-08T14:56:06.564Z,95.5918
2022-12-08T15:01:06.474Z,95.63086
2022-12-08T15:06:08.572Z,95.62598
2022-12-08T15:11:28.526Z,95.51953
2022-12-08T15:16:07.478Z,95.4375
2022-12-08T15:21:13.104Z,95.38867
2022-12-08T15:26:08.811Z,95.55566
2022-12-08T15:31:06.268Z,95.66406
2022-12-08T15:36:05.989Z,95.57617
2022-12-08T15:41:08.043Z,95.6416
2022-12-08T15:46:05.406Z,95.67773
2022-12-08T15:51:05.349Z,95.60938
2022-12-08T15:56:28.661Z,95.81934
2022-12-08T16:01:06.505Z,95.54883
2022-12-08T16:06:39.037Z,95.63086
2022-12-08T16:12:03.803Z,95.58398
2022-12-08T16:16:06.121Z,95.57031
2022-12-08T16:21:12.319Z,95.62891
2022-12-08T16:26:23.963Z,95.57715
2022-12-08T16:31:12.999Z,95.38281
2022-12-08T16:36:05.465Z,95.59668
2022-12-08T16:41:16.758Z,95.41797
2022-12-08T16:46:05.365Z,95.36035
2022-12-08T16:51:09.163Z,95.47266
2022-12-08T16:56:05.449Z,95.38867
2022-12-08T17:01:05.301Z,95.4873
2022-12-08T17:06:05.258Z,95.4082
2022-12-08T17:11:12.608Z,95.10449
2022-12-08T17:16:05.773Z,95.40723
2022-12-08T17:21:05.318Z,95.48047
2022-12-08T17:26:05.908Z,95.4248
2022-12-08T17:31:06.226Z,95.31055
2022-12-08T17:36:05.244Z,95.18262
2022-12-08T17:41:10.895Z,95.4375
2022-12-08T17:46:05.339Z,95.29004
2022-12-08T17:51:06.257Z,95.29102
2022-12-08T17:56:06.201Z,95.38281
2022-12-08T18:01:10.883Z,95.4043
2022-12-08T18:06:09.797Z,95.21191
2022-12-08T18:11:07.883Z,95.22656
2022-12-08T18:16:05.310Z,95.35254
2022-12-08T18:21:05.294Z,95.1875
2022-12-08T18:26:06.874Z,95.21289
2022-12-08T18:31:05.509Z,95.12598
2022-12-08T18:36:05.245Z,95.23438
2022-12-08T18:41:11.849Z,95.09375
2022-12-08T18:46:09.551Z,95.28906
2022-12-08T18:51:05.590Z,95.13574
2022-12-08T18:56:07.759Z,95.1084
2022-12-08T19:01:05.959Z,95.25977
2022-12-08T19:06:15.001Z,95.35547
2022-12-08T19:11:05.884Z,95.10254
2022-12-08T19:16:05.389Z,94.89941
2022-12-08T19:21:05.899Z,95.2373
2022-12-08T19:26:05.706Z,95.08887
2022-12-08T19:31:08.849Z,94.98535
2022-12-08T19:36:08.598Z,94.75098
2022-12-08T19:41:17.933Z,94.83398
2022-12-08T19:46:05.531Z,94.89258
2022-12-08T19:51:05.454Z,95.0293
2022-12-08T19:56:05.717Z,95.02832
2022-12-08T20:01:06.127Z,94.97461
2022-12-08T20:06:06.135Z,95.0918
2022-12-08T20:11:05.557Z,95.23145
2022-12-08T20:16:06.157Z,94.97754
2022-12-08T20:21:07.965Z,95.00586
2022-12-08T20:26:08.516Z,95.28223
2022-12-08T20:31:05.600Z,95.25391
2022-12-08T20:36:11.394Z,95.08789
2022-12-08T20:41:08.526Z,95.13672
2022-12-08T20:46:12.249Z,95.21777
2022-12-08T20:51:06.183Z,95.03223
2022-12-08T20:56:05.849Z,95.15039
2022-12-08T21:01:08.338Z,95.12598
2022-12-08T21:06:06.841Z,95.11426
2022-12-08T21:11:05.302Z,95.10156
2022-12-08T21:16:05.469Z,94.96094
2022-12-08T21:21:09.487Z,95.04883
2022-12-08T21:26:05.680Z,94.82031
2022-12-08T21:31:09.500Z,94.99609
2022-12-08T21:36:10.224Z,95.04199
2022-12-08T21:41:10.706Z,94.84277
2022-12-08T21:46:08.733Z,94.73926
2022-12-08T21:51:06.987Z,94.83789
2022-12-08T21:56:06.188Z,95.03613
2022-12-08T22:01:08.595Z,95.03125
2022-12-08T22:06:07.048Z,94.75879
2022-12-08T22:11:05.245Z,94.72461
2022-12-08T22:16:06.609Z,94.84082
2022-12-08T22:21:05.390Z,94.79492
2022-12-08T22:26:05.746Z,94.76855
2022-12-08T22:31:10.821Z,94.68848
2022-12-08T22:36:10.094Z,94.56934
2022-12-08T22:41:07.551Z,94.72363
2022-12-08T22:46:12.085Z,94.63672
2022-12-08T22:51:06.705Z,94.64355
2022-12-08T22:56:07.163Z,94.74316
2022-12-08T23:01:05.354Z,94.72461
2022-12-08T23:06:06.685Z,94.5752
2022-12-08T23:11:05.342Z,94.67676
2022-12-08T23:16:05.492Z,94.80078
2022-12-08T23:21:10.628Z,94.79883
2022-12-08T23:26:05.340Z,94.83789
2022-12-08T23:31:10.564Z,94.77539
2022-12-08T23:36:05.961Z,94.86621
2022-12-08T23:41:09.114Z,94.83691
2022-12-08T23:46:07.849Z,94.76855
2022-12-08T23:51:06.434Z,94.76074
2022-12-08T23:56:10.624Z,94.89844
